CST,Max TemperatureF,Mean TemperatureF,Min TemperatureF,Max Dew PointF,MeanDew PointF,Min DewpointF,Max Humidity, Mean Humidity, Min Humidity, Max Sea Level PressureIn, Mean Sea Level PressureIn, Min Sea Level PressureIn, Max VisibilityMiles, Mean VisibilityMiles, Min VisibilityMiles, Max Wind SpeedMPH, Mean Wind SpeedMPH, Max Gust SpeedMPH,PrecipitationIn, CloudCover, Events, WindDirDegrees
2011-11-1,68,52,36,47,39,32,87,65,42,30.06,29.95,29.85,10,10,10,10,6,16,0.00,1,,111
2011-11-2,53,44,36,47,40,34,91,82,66,30.17,30.05,29.90,10,9,2,16,5,25,0.97,7,Rain,346
2011-11-3,50,42,32,37,32,27,90,68,41,30.25,30.17,30.08,10,10,10,14,6,21,0.07,1,,351
2011-11-4,54,38,25,37,30,24,98,79,48,30.36,30.27,30.18,10,8,0,9,1,,0.00,2,Fog,108
2011-11-5,55,45,35,44,37,31,88,75,59,30.18,30.06,29.90,10,10,7,13,7,20,0.00,0,,118
2011-11-6,61,54,48,47,42,34,78,67,48,30.03,29.87,29.79,10,10,10,22,9,30,0.00,2,,178
2011-11-7,56,43,30,35,30,24,92,64,28,30.24,30.18,30.09,10,10,7,6,0,,0.00,1,,335
2011-11-8,45,43,41,40,39,37,93,86,74,30.19,30.09,30.04,10,10,4,10,6,16,0.35,8,Rain,22
2011-11-9,41,36,32,37,33,27,98,86,62,29.98,29.91,29.83,10,7,0,18,11,29,0.87,6,Rain-Snow,308
2011-11-10,40,34,29,29,27,24,86,71,58,30.05,30.01,29.96,10,10,10,22,10,28,0.00,6,,271
2011-11-11,46,36,26,30,26,20,91,70,41,30.03,29.84,29.70,10,10,10,12,3,18,0.00,1,,123
2011-11-12,54,41,28,40,34,27,96,73,46,29.69,29.61,29.44,10,9,7,15,2,20,0.00,0,,129
2011-11-13,57,52,46,49,41,36,86,68,54,29.53,29.33,29.22,10,10,10,17,6,26,0.00,4,,209
2011-11-14,60,48,35,40,34,26,88,64,39,29.68,29.57,29.48,10,10,10,15,4,26,0.00,2,Rain,213
2011-11-15,56,44,32,35,29,18,89,55,32,29.90,29.71,29.64,10,10,10,21,5,26,0.00,1,,227
2011-11-16,39,32,26,20,16,12,69,49,33,30.16,30.09,29.95,10,10,10,15,8,23,0.00,0,,262
2011-11-17,34,27,20,15,13,8,73,56,33,30.24,30.17,30.11,10,10,10,16,8,21,0.00,0,,267
2011-11-18,53,41,29,30,24,18,62,51,38,30.02,29.84,29.70,10,10,10,16,10,26,0.00,0,,168
2011-11-19,47,44,39,40,33,26,95,68,45,29.82,29.71,29.61,10,10,2,14,4,21,0.01,8,Rain,115
2011-11-20,37,32,27,31,27,25,90,79,69,30.33,30.25,30.04,10,10,10,13,7,22,0.00,6,,318
2011-11-21,44,33,22,32,27,21,95,81,61,30.34,30.28,30.19,10,10,10,8,1,9,0.00,2,,85
2011-11-22,42,35,28,33,32,27,94,82,67,30.23,30.08,29.97,10,8,3,7,2,,0.00,6,,12
2011-11-23,44,34,24,37,32,23,96,88,75,30.21,30.17,30.11,10,5,2,13,2,,0.00,6,,201
2011-11-24,55,48,41,44,41,37,92,81,63,30.16,30.04,29.89,10,6,2,15,7,23,0.00,5,,158
2011-11-25,52,50,47,46,42,40,88,74,63,29.86,29.81,29.77,10,9,5,15,7,21,0.00,4,,176
2011-11-26,52,46,40,50,44,36,95,88,76,29.89,29.78,29.71,10,7,2,18,7,29,0.39,8,Rain,233
2011-11-27,38,36,33,33,27,24,81,71,65,30.19,30.07,29.93,10,10,10,20,12,26,0.00,8,,331
2011-11-28,35,32,28,27,25,23,90,75,67,30.19,30.14,30.07,10,10,10,7,3,,0.00,5,,322
2011-11-29,39,32,23,28,21,15,91,63,39,30.18,30.13,30.07,10,10,10,18,7,24,0.00,0,,335
2011-11-30,45,30,16,19,14,9,88,56,23,30.10,30.05,29.99,10,10,10,9,2,,0.00,1,,170